Terminal Aerodrome Forecast
Issued by NWS Memphis, TN

Home | Current Version | Previous Version | Text Only | Print | Product List | Glossary On
Versions: 1 2 3 4 5 6 7 8 9 10 11 12 13 14 15 16 17 18 19 20 21 22 23 24
315
FTUS44 KMEG 251120
TAFMEM
TAF
KMEM 251120Z 2512/2612 11004KT P6SM FEW080
     FM251700 17004KT P6SM SCT060
     FM260000 35006KT P6SM SCT250
     FM260900 36008KT P6SM VCSH BKN050 BKN250=

USA.gov is the U.S. government's official web portal to all federal, state and local government web resources and services.